sensor_id;sensor_type;location;lat;lon;timestamp;pressure;altitude;pressure_sealevel;temperature;humidity
13836;BME280;6988;52.614;13.500;2023-08-06T00:01:05;54058.94;;;-143.77;82.62
13836;BME280;6988;52.614;13.500;2023-08-06T00:05:57;54085.59;;;-143.77;82.83
13836;BME280;6988;52.614;13.500;2023-08-06T00:10:49;54081.50;;;-143.77;82.78
13836;BME280;6988;52.614;13.500;2023-08-06T00:15:40;54073.28;;;-143.77;83.13
13836;BME280;6988;52.614;13.500;2023-08-06T00:20:33;54052.78;;;-143.77;83.24
13836;BME280;6988;52.614;13.500;2023-08-06T00:25:25;54075.34;;;-143.77;83.42
13836;BME280;6988;52.614;13.500;2023-08-06T00:30:17;54134.84;;;-143.77;84.04
13836;BME280;6988;52.614;13.500;2023-08-06T00:35:12;54065.09;;;-143.77;83.94
13836;BME280;6988;52.614;13.500;2023-08-06T00:40:07;54102.00;;;-143.77;84.01
13836;BME280;6988;52.614;13.500;2023-08-06T00:44:59;54097.91;;;-143.77;84.27
13836;BME280;6988;52.614;13.500;2023-08-06T00:49:51;54081.50;;;-143.77;84.49
13836;BME280;6988;52.614;13.500;2023-08-06T00:54:43;54112.28;;;-143.77;84.42
13836;BME280;6988;52.614;13.500;2023-08-06T00:59:37;54077.41;;;-143.77;84.45
13836;BME280;6988;52.614;13.500;2023-08-06T01:04:29;54089.72;;;-143.77;84.81
13836;BME280;6988;52.614;13.500;2023-08-06T01:09:37;54116.38;;;-143.77;84.46
13836;BME280;6988;52.614;13.500;2023-08-06T01:14:41;54102.00;;;-143.77;84.43
13836;BME280;6988;52.614;13.500;2023-08-06T01:19:35;54116.38;;;-143.77;84.46
13836;BME280;6988;52.614;13.500;2023-08-06T01:24:28;54093.81;;;-143.77;84.61
13836;BME280;6988;52.614;13.500;2023-08-06T01:29:29;54114.31;;;-143.77;85.03
13836;BME280;6988;52.614;13.500;2023-08-06T01:34:25;54071.25;;;-143.77;85.08
13836;BME280;6988;52.614;13.500;2023-08-06T01:39:20;54136.91;;;-143.77;85.00
13836;BME280;6988;52.614;13.500;2023-08-06T01:44:14;54102.00;;;-143.77;84.94
13836;BME280;6988;52.614;13.500;2023-08-06T01:49:06;54102.00;;;-143.77;84.68
13836;BME280;6988;52.614;13.500;2023-08-06T01:53:58;54120.47;;;-143.77;84.94
13836;BME280;6988;52.614;13.500;2023-08-06T01:58:50;54106.13;;;-143.77;84.80
13836;BME280;6988;52.614;13.500;2023-08-06T02:03:43;54112.28;;;-143.77;85.00
13836;BME280;6988;52.614;13.500;2023-08-06T02:08:35;54114.31;;;-143.77;84.74
13836;BME280;6988;52.614;13.500;2023-08-06T02:13:27;54122.53;;;-143.77;84.63
13836;BME280;6988;52.614;13.500;2023-08-06T02:18:19;54118.44;;;-143.77;84.98
13836;BME280;6988;52.614;13.500;2023-08-06T02:23:12;54095.88;;;-143.77;85.61
13836;BME280;6988;52.614;13.500;2023-08-06T02:28:04;54151.25;;;-143.77;86.40
13836;BME280;6988;52.614;13.500;2023-08-06T02:32:56;54122.53;;;-143.77;86.87
13836;BME280;6988;52.614;13.500;2023-08-06T02:37:47;54116.38;;;-143.77;87.11
13836;BME280;6988;52.614;13.500;2023-08-06T02:42:41;54143.06;;;-143.77;86.99
13836;BME280;6988;52.614;13.500;2023-08-06T02:47:32;54122.53;;;-143.77;87.06
13836;BME280;6988;52.614;13.500;2023-08-06T02:52:24;54110.22;;;-143.77;87.12
13836;BME280;6988;52.614;13.500;2023-08-06T02:57:17;54128.69;;;-143.77;86.86
13836;BME280;6988;52.614;13.500;2023-08-06T03:02:16;54179.97;;;-143.77;86.49
13836;BME280;6988;52.614;13.500;2023-08-06T03:07:25;54159.47;;;-143.77;86.00
13836;BME280;6988;52.614;13.500;2023-08-06T03:12:22;54118.44;;;-143.77;85.88
13836;BME280;6988;52.614;13.500;2023-08-06T03:17:15;54182.03;;;-143.77;86.01
13836;BME280;6988;52.614;13.500;2023-08-06T03:22:07;54126.63;;;-143.77;86.05
13836;BME280;6988;52.614;13.500;2023-08-06T03:27:01;54194.34;;;-143.77;86.10
13836;BME280;6988;52.614;13.500;2023-08-06T03:31:55;54126.63;;;-143.77;86.25
13836;BME280;6988;52.614;13.500;2023-08-06T03:36:48;54114.31;;;-143.77;86.36
13836;BME280;6988;52.614;13.500;2023-08-06T03:41:40;54118.44;;;-143.77;87.02
13836;BME280;6988;52.614;13.500;2023-08-06T03:46:32;54128.69;;;-143.77;86.88
13836;BME280;6988;52.614;13.500;2023-08-06T03:51:26;54145.09;;;-143.77;86.55
13836;BME280;6988;52.614;13.500;2023-08-06T03:56:21;54138.94;;;-143.77;86.08
13836;BME280;6988;52.614;13.500;2023-08-06T04:01:14;54145.09;;;-143.77;85.73
13836;BME280;6988;52.614;13.500;2023-08-06T04:06:09;54124.59;;;-143.77;85.47
13836;BME280;6988;52.614;13.500;2023-08-06T04:11:01;54104.06;;;-143.77;85.44
13836;BME280;6988;52.614;13.500;2023-08-06T04:16:01;54153.31;;;-143.77;85.35
13836;BME280;6988;52.614;13.500;2023-08-06T04:20:53;54147.16;;;-143.77;85.30
13836;BME280;6988;52.614;13.500;2023-08-06T04:25:45;54134.84;;;-143.77;85.05
13836;BME280;6988;52.614;13.500;2023-08-06T04:30:38;54141.00;;;-143.77;85.26
13836;BME280;6988;52.614;13.500;2023-08-06T04:35:33;54124.59;;;-143.77;85.36
13836;BME280;6988;52.614;13.500;2023-08-06T04:40:25;54122.53;;;-143.77;85.11
13836;BME280;6988;52.614;13.500;2023-08-06T04:45:19;54114.31;;;-143.77;85.18
13836;BME280;6988;52.614;13.500;2023-08-06T04:50:10;54114.31;;;-143.77;85.16
13836;BME280;6988;52.614;13.500;2023-08-06T04:55:04;54102.00;;;-143.77;85.25
13836;BME280;6988;52.614;13.500;2023-08-06T04:59:56;54147.16;;;-143.77;85.16
13836;BME280;6988;52.614;13.500;2023-08-06T05:04:48;54130.75;;;-143.77;85.30
13836;BME280;6988;52.614;13.500;2023-08-06T05:09:40;54124.59;;;-143.77;85.23
13836;BME280;6988;52.614;13.500;2023-08-06T05:14:33;54110.22;;;-143.77;84.87
13836;BME280;6988;52.614;13.500;2023-08-06T05:19:25;54147.16;;;-143.77;84.82
13836;BME280;6988;52.614;13.500;2023-08-06T05:24:17;54126.63;;;-143.77;85.15
13836;BME280;6988;52.614;13.500;2023-08-06T05:29:08;54143.06;;;-143.77;84.78
13836;BME280;6988;52.614;13.500;2023-08-06T05:34:02;54114.31;;;-143.77;84.98
13836;BME280;6988;52.614;13.500;2023-08-06T05:38:53;54134.84;;;-143.77;84.99
13836;BME280;6988;52.614;13.500;2023-08-06T05:43:45;54153.31;;;-143.77;85.01
13836;BME280;6988;52.614;13.500;2023-08-06T05:48:37;54134.84;;;-143.77;84.76
13836;BME280;6988;52.614;13.500;2023-08-06T05:53:30;54112.28;;;-143.77;85.03
13836;BME280;6988;52.614;13.500;2023-08-06T05:58:22;54106.13;;;-143.77;84.84
13836;BME280;6988;52.614;13.500;2023-08-06T06:03:16;54093.81;;;-143.77;83.87
13836;BME280;6988;52.614;13.500;2023-08-06T06:08:08;54083.56;;;-143.77;84.29
13836;BME280;6988;52.614;13.500;2023-08-06T06:13:01;54114.31;;;-143.77;84.17
13836;BME280;6988;52.614;13.500;2023-08-06T06:17:53;54124.59;;;-143.77;84.33
13836;BME280;6988;52.614;13.500;2023-08-06T06:22:44;54073.28;;;-143.77;84.37
13836;BME280;6988;52.614;13.500;2023-08-06T06:27:36;54126.63;;;-143.77;84.77
13836;BME280;6988;52.614;13.500;2023-08-06T06:32:29;54079.44;;;-143.77;84.31
13836;BME280;6988;52.614;13.500;2023-08-06T06:37:22;54108.16;;;-143.77;83.91
13836;BME280;6988;52.614;13.500;2023-08-06T06:42:13;54114.31;;;-143.77;83.85
13836;BME280;6988;52.614;13.500;2023-08-06T06:47:09;54097.91;;;-143.77;83.39
13836;BME280;6988;52.614;13.500;2023-08-06T06:52:03;54130.75;;;-143.77;82.74
13836;BME280;6988;52.614;13.500;2023-08-06T06:56:55;54075.34;;;-143.77;83.08
13836;BME280;6988;52.614;13.500;2023-08-06T07:01:47;54087.66;;;-143.77;83.18
13836;BME280;6988;52.614;13.500;2023-08-06T07:06:38;54052.78;;;-143.77;83.17
13836;BME280;6988;52.614;13.500;2023-08-06T07:11:32;54091.75;;;-143.77;83.34
13836;BME280;6988;52.614;13.500;2023-08-06T07:16:23;54102.00;;;-143.77;82.95
13836;BME280;6988;52.614;13.500;2023-08-06T07:21:15;54052.78;;;-143.77;81.96
13836;BME280;6988;52.614;13.500;2023-08-06T07:26:07;54013.78;;;-143.77;81.52
13836;BME280;6988;52.614;13.500;2023-08-06T07:31:03;54122.53;;;-143.77;81.92
13836;BME280;6988;52.614;13.500;2023-08-06T07:35:55;54040.47;;;-143.77;81.90
13836;BME280;6988;52.614;13.500;2023-08-06T07:40:47;54056.88;;;-143.77;81.51
13836;BME280;6988;52.614;13.500;2023-08-06T07:45:39;54030.22;;;-143.77;81.11
13836;BME280;6988;52.614;13.500;2023-08-06T07:50:32;54026.09;;;-143.77;80.60
13836;BME280;6988;52.614;13.500;2023-08-06T07:55:25;54017.91;;;-143.77;80.41
13836;BME280;6988;52.614;13.500;2023-08-06T08:00:16;54032.25;;;-143.77;80.73
13836;BME280;6988;52.614;13.500;2023-08-06T08:05:09;54028.16;;;-143.77;80.24
13836;BME280;6988;52.614;13.500;2023-08-06T08:10:03;54044.56;;;-143.77;80.29
13836;BME280;6988;52.614;13.500;2023-08-06T08:14:55;54040.47;;;-143.77;80.01
13836;BME280;6988;52.614;13.500;2023-08-06T08:19:47;54087.66;;;-143.77;79.97
13836;BME280;6988;52.614;13.500;2023-08-06T08:24:39;54036.38;;;-143.77;80.09
13836;BME280;6988;52.614;13.500;2023-08-06T08:29:32;54079.44;;;-143.77;80.27
13836;BME280;6988;52.614;13.500;2023-08-06T08:34:24;54048.66;;;-143.77;80.39
13836;BME280;6988;52.614;13.500;2023-08-06T08:39:16;54028.16;;;-143.77;80.55
13836;BME280;6988;52.614;13.500;2023-08-06T08:44:10;54060.97;;;-143.77;79.69
13836;BME280;6988;52.614;13.500;2023-08-06T08:49:03;54056.88;;;-143.77;80.23
13836;BME280;6988;52.614;13.500;2023-08-06T08:53:56;54069.19;;;-143.77;80.35
13836;BME280;6988;52.614;13.500;2023-08-06T08:58:48;54069.19;;;-143.77;80.66
13836;BME280;6988;52.614;13.500;2023-08-06T09:03:40;54060.97;;;-143.77;80.85
13836;BME280;6988;52.614;13.500;2023-08-06T09:08:39;54034.31;;;-143.77;80.86
13836;BME280;6988;52.614;13.500;2023-08-06T09:13:33;54028.16;;;-143.77;80.87
13836;BME280;6988;52.614;13.500;2023-08-06T09:18:26;54009.69;;;-143.77;81.17
13836;BME280;6988;52.614;13.500;2023-08-06T09:23:19;53991.22;;;-143.77;80.96
13836;BME280;6988;52.614;13.500;2023-08-06T09:28:12;53985.06;;;-143.77;81.10
13836;BME280;6988;52.614;13.500;2023-08-06T09:33:08;54003.53;;;-143.77;80.70
13836;BME280;6988;52.614;13.500;2023-08-06T09:38:06;54001.47;;;-143.77;80.23
13836;BME280;6988;52.614;13.500;2023-08-06T09:43:02;53993.28;;;-143.77;80.43
13836;BME280;6988;52.614;13.500;2023-08-06T09:47:58;54019.94;;;-143.77;80.48
13836;BME280;6988;52.614;13.500;2023-08-06T09:52:51;54036.38;;;-143.77;79.64
13836;BME280;6988;52.614;13.500;2023-08-06T09:57:43;54024.06;;;-143.77;79.55
13836;BME280;6988;52.614;13.500;2023-08-06T10:02:37;53987.13;;;-143.77;79.57
13836;BME280;6988;52.614;13.500;2023-08-06T10:07:31;53995.31;;;-143.77;78.61
13836;BME280;6988;52.614;13.500;2023-08-06T10:12:25;54073.28;;;-143.77;78.21
13836;BME280;6988;52.614;13.500;2023-08-06T10:17:17;54022.00;;;-143.77;78.30
13836;BME280;6988;52.614;13.500;2023-08-06T10:22:11;54032.25;;;-143.77;78.07
13836;BME280;6988;52.614;13.500;2023-08-06T10:27:06;53970.72;;;-143.77;78.24
13836;BME280;6988;52.614;13.500;2023-08-06T10:31:59;54028.16;;;-143.77;78.04
13836;BME280;6988;52.614;13.500;2023-08-06T10:36:55;54028.16;;;-143.77;77.71
13836;BME280;6988;52.614;13.500;2023-08-06T10:41:47;54028.16;;;-143.77;77.82
13836;BME280;6988;52.614;13.500;2023-08-06T10:46:40;53993.28;;;-143.77;78.47
13836;BME280;6988;52.614;13.500;2023-08-06T10:51:32;53995.31;;;-143.77;78.24
13836;BME280;6988;52.614;13.500;2023-08-06T10:56:25;54015.84;;;-143.77;78.03
13836;BME280;6988;52.614;13.500;2023-08-06T11:01:18;54011.75;;;-143.77;77.69
13836;BME280;6988;52.614;13.500;2023-08-06T11:06:17;54009.69;;;-143.77;76.73
13836;BME280;6988;52.614;13.500;2023-08-06T11:11:12;54050.72;;;-143.77;76.84
13836;BME280;6988;52.614;13.500;2023-08-06T11:16:04;54007.63;;;-143.77;77.51
13836;BME280;6988;52.614;13.500;2023-08-06T11:20:59;53991.22;;;-143.77;77.84
13836;BME280;6988;52.614;13.500;2023-08-06T11:25:53;54013.78;;;-143.77;78.31
13836;BME280;6988;52.614;13.500;2023-08-06T11:30:45;53964.56;;;-143.77;77.74
13836;BME280;6988;52.614;13.500;2023-08-06T11:35:37;54005.59;;;-143.77;78.17
13836;BME280;6988;52.614;13.500;2023-08-06T11:40:31;53995.31;;;-143.77;78.13
13836;BME280;6988;52.614;13.500;2023-08-06T11:45:25;53999.44;;;-143.77;77.47
13836;BME280;6988;52.614;13.500;2023-08-06T11:50:23;53993.28;;;-143.77;77.06
13836;BME280;6988;52.614;13.500;2023-08-06T11:55:14;54015.84;;;-143.77;77.62
13836;BME280;6988;52.614;13.500;2023-08-06T12:00:09;54003.53;;;-143.77;77.88
13836;BME280;6988;52.614;13.500;2023-08-06T12:05:12;54003.53;;;-143.77;78.24
13836;BME280;6988;52.614;13.500;2023-08-06T12:10:06;54007.63;;;-143.77;78.34
13836;BME280;6988;52.614;13.500;2023-08-06T12:14:58;53993.28;;;-143.77;78.35
13836;BME280;6988;52.614;13.500;2023-08-06T12:19:50;53993.28;;;-143.77;78.37
13836;BME280;6988;52.614;13.500;2023-08-06T12:24:45;53989.16;;;-143.77;79.22
13836;BME280;6988;52.614;13.500;2023-08-06T12:29:40;53999.44;;;-143.77;78.96
13836;BME280;6988;52.614;13.500;2023-08-06T12:34:33;54017.91;;;-143.77;79.43
13836;BME280;6988;52.614;13.500;2023-08-06T12:39:25;54013.78;;;-143.77;78.60
13836;BME280;6988;52.614;13.500;2023-08-06T12:44:20;54048.66;;;-143.77;78.71
13836;BME280;6988;52.614;13.500;2023-08-06T12:49:12;54013.78;;;-143.77;78.87
13836;BME280;6988;52.614;13.500;2023-08-06T12:54:03;53999.44;;;-143.77;78.42
13836;BME280;6988;52.614;13.500;2023-08-06T12:58:55;54026.09;;;-143.77;78.56
13836;BME280;6988;52.614;13.500;2023-08-06T13:03:48;54036.38;;;-143.77;79.25
13836;BME280;6988;52.614;13.500;2023-08-06T13:08:40;54032.25;;;-143.77;77.23
13836;BME280;6988;52.614;13.500;2023-08-06T13:13:32;54046.63;;;-143.77;78.06
13836;BME280;6988;52.614;13.500;2023-08-06T13:18:24;54036.38;;;-143.77;78.94
13836;BME280;6988;52.614;13.500;2023-08-06T13:23:18;54063.03;;;-143.77;78.84
13836;BME280;6988;52.614;13.500;2023-08-06T13:28:10;54042.50;;;-143.77;78.63
13836;BME280;6988;52.614;13.500;2023-08-06T13:33:02;54036.38;;;-143.77;79.00
13836;BME280;6988;52.614;13.500;2023-08-06T13:37:55;54030.22;;;-143.77;79.32
13836;BME280;6988;52.614;13.500;2023-08-06T13:42:48;54044.56;;;-143.77;79.01
13836;BME280;6988;52.614;13.500;2023-08-06T13:47:40;54058.94;;;-143.77;78.18
13836;BME280;6988;52.614;13.500;2023-08-06T13:52:32;54040.47;;;-143.77;78.29
13836;BME280;6988;52.614;13.500;2023-08-06T13:57:25;54081.50;;;-143.77;78.42
13836;BME280;6988;52.614;13.500;2023-08-06T14:02:19;54050.72;;;-143.77;78.61
13836;BME280;6988;52.614;13.500;2023-08-06T14:07:10;54087.66;;;-143.77;79.44
13836;BME280;6988;52.614;13.500;2023-08-06T14:12:02;54075.34;;;-143.77;79.16
13836;BME280;6988;52.614;13.500;2023-08-06T14:16:55;54112.28;;;-143.77;78.28
13836;BME280;6988;52.614;13.500;2023-08-06T14:21:49;54097.91;;;-143.77;79.11
13836;BME280;6988;52.614;13.500;2023-08-06T14:26:41;54063.03;;;-143.77;79.64
13836;BME280;6988;52.614;13.500;2023-08-06T14:36:25;54104.06;;;-143.77;80.13
13836;BME280;6988;52.614;13.500;2023-08-06T14:41:19;54087.66;;;-143.77;79.68
13836;BME280;6988;52.614;13.500;2023-08-06T14:46:10;54106.13;;;-143.77;79.89
13836;BME280;6988;52.614;13.500;2023-08-06T14:51:02;54077.41;;;-143.77;80.31
13836;BME280;6988;52.614;13.500;2023-08-06T14:55:54;54091.75;;;-143.77;80.42
13836;BME280;6988;52.614;13.500;2023-08-06T15:00:47;54058.94;;;-143.77;80.98
13836;BME280;6988;52.614;13.500;2023-08-06T15:05:43;54143.06;;;-143.77;80.83
13836;BME280;6988;52.614;13.500;2023-08-06T15:10:34;54118.44;;;-143.77;81.09
13836;BME280;6988;52.614;13.500;2023-08-06T15:15:27;54075.34;;;-143.77;80.65
13836;BME280;6988;52.614;13.500;2023-08-06T15:20:20;54126.63;;;-143.77;80.89
13836;BME280;6988;52.614;13.500;2023-08-06T15:25:12;54130.75;;;-143.77;81.21
13836;BME280;6988;52.614;13.500;2023-08-06T15:30:05;54097.91;;;-143.77;80.06
13836;BME280;6988;52.614;13.500;2023-08-06T15:34:57;54093.81;;;-143.77;79.73
13836;BME280;6988;52.614;13.500;2023-08-06T15:39:51;54110.22;;;-143.77;79.49
13836;BME280;6988;52.614;13.500;2023-08-06T15:44:43;54118.44;;;-143.77;79.72
13836;BME280;6988;52.614;13.500;2023-08-06T15:49:35;54136.91;;;-143.77;79.82
13836;BME280;6988;52.614;13.500;2023-08-06T15:54:27;54106.13;;;-143.77;80.58
13836;BME280;6988;52.614;13.500;2023-08-06T15:59:25;54118.44;;;-143.77;79.25
13836;BME280;6988;52.614;13.500;2023-08-06T16:04:18;54130.75;;;-143.77;79.31
13836;BME280;6988;52.614;13.500;2023-08-06T16:09:11;54118.44;;;-143.77;79.33
13836;BME280;6988;52.614;13.500;2023-08-06T16:14:04;54118.44;;;-143.77;79.73
13836;BME280;6988;52.614;13.500;2023-08-06T16:18:57;54159.47;;;-143.77;80.28
13836;BME280;6988;52.614;13.500;2023-08-06T16:23:49;54089.72;;;-143.77;80.81
13836;BME280;6988;52.614;13.500;2023-08-06T16:28:41;54128.69;;;-143.77;79.97
13836;BME280;6988;52.614;13.500;2023-08-06T16:33:32;54104.06;;;-143.77;80.17
13836;BME280;6988;52.614;13.500;2023-08-06T16:38:26;54102.00;;;-143.77;80.10
13836;BME280;6988;52.614;13.500;2023-08-06T16:43:18;54089.72;;;-143.77;79.84
13836;BME280;6988;52.614;13.500;2023-08-06T16:48:10;54122.53;;;-143.77;79.66
13836;BME280;6988;52.614;13.500;2023-08-06T16:53:04;54200.50;;;-143.77;80.09
13836;BME280;6988;52.614;13.500;2023-08-06T16:57:58;54093.81;;;-143.77;79.23
13836;BME280;6988;52.614;13.500;2023-08-06T17:03:05;54134.84;;;-143.77;78.24
13836;BME280;6988;52.614;13.500;2023-08-06T17:07:57;54126.63;;;-143.77;77.87
13836;BME280;6988;52.614;13.500;2023-08-06T17:12:48;54143.06;;;-143.77;78.07
13836;BME280;6988;52.614;13.500;2023-08-06T17:17:42;54163.56;;;-143.77;77.71
13836;BME280;6988;52.614;13.500;2023-08-06T17:22:35;54169.72;;;-143.77;78.06
13836;BME280;6988;52.614;13.500;2023-08-06T17:27:49;54143.06;;;-143.77;78.50
13836;BME280;6988;52.614;13.500;2023-08-06T17:32:40;54153.31;;;-143.77;78.21
13836;BME280;6988;52.614;13.500;2023-08-06T17:37:35;54171.78;;;-143.77;77.69
13836;BME280;6988;52.614;13.500;2023-08-06T17:43:04;54194.34;;;-143.77;78.24
13836;BME280;6988;52.614;13.500;2023-08-06T17:47:56;54159.47;;;-143.77;78.54
13836;BME280;6988;52.614;13.500;2023-08-06T17:52:49;54188.19;;;-143.77;78.89
13836;BME280;6988;52.614;13.500;2023-08-06T17:57:41;54182.03;;;-143.77;79.29
13836;BME280;6988;52.614;13.500;2023-08-06T18:02:33;54159.47;;;-143.77;79.05
13836;BME280;6988;52.614;13.500;2023-08-06T18:07:25;54167.66;;;-143.77;79.27
13836;BME280;6988;52.614;13.500;2023-08-06T18:12:18;54175.88;;;-143.77;78.73
13836;BME280;6988;52.614;13.500;2023-08-06T18:17:10;54186.13;;;-143.77;79.12
13836;BME280;6988;52.614;13.500;2023-08-06T18:22:03;54239.47;;;-143.77;79.21
13836;BME280;6988;52.614;13.500;2023-08-06T18:26:55;54196.41;;;-143.77;79.44
13836;BME280;6988;52.614;13.500;2023-08-06T18:31:48;54214.88;;;-143.77;79.62
13836;BME280;6988;52.614;13.500;2023-08-06T18:36:40;54208.72;;;-143.77;79.33
13836;BME280;6988;52.614;13.500;2023-08-06T18:41:31;54221.03;;;-143.77;79.16
13836;BME280;6988;52.614;13.500;2023-08-06T18:46:23;54260.00;;;-143.77;79.20
13836;BME280;6988;52.614;13.500;2023-08-06T18:51:16;54194.34;;;-143.77;79.32
13836;BME280;6988;52.614;13.500;2023-08-06T18:56:10;54315.41;;;-143.77;79.55
13836;BME280;6988;52.614;13.500;2023-08-06T19:01:02;54225.13;;;-143.77;79.79
13836;BME280;6988;52.614;13.500;2023-08-06T19:05:58;54216.91;;;-143.77;79.91
13836;BME280;6988;52.614;13.500;2023-08-06T19:10:52;54231.28;;;-143.77;79.92
13836;BME280;6988;52.614;13.500;2023-08-06T19:15:46;54218.97;;;-143.77;80.69
13836;BME280;6988;52.614;13.500;2023-08-06T19:20:41;54253.84;;;-143.77;80.92
13836;BME280;6988;52.614;13.500;2023-08-06T19:25:40;54243.59;;;-143.77;81.18
13836;BME280;6988;52.614;13.500;2023-08-06T19:30:36;54237.44;;;-143.77;80.93
13836;BME280;6988;52.614;13.500;2023-08-06T19:35:30;54235.38;;;-143.77;80.94
13836;BME280;6988;52.614;13.500;2023-08-06T19:40:22;54237.44;;;-143.77;81.27
13836;BME280;6988;52.614;13.500;2023-08-06T19:45:14;54221.03;;;-143.77;81.54
13836;BME280;6988;52.614;13.500;2023-08-06T19:50:07;54229.22;;;-143.77;81.81
13836;BME280;6988;52.614;13.500;2023-08-06T19:54:59;54268.22;;;-143.77;82.00
13836;BME280;6988;52.614;13.500;2023-08-06T19:59:51;54212.81;;;-143.77;82.28
13836;BME280;6988;52.614;13.500;2023-08-06T20:04:43;54237.44;;;-143.77;81.95
13836;BME280;6988;52.614;13.500;2023-08-06T20:09:36;54253.84;;;-143.77;81.99
13836;BME280;6988;52.614;13.500;2023-08-06T20:14:28;54212.81;;;-143.77;81.95
13836;BME280;6988;52.614;13.500;2023-08-06T20:19:20;54221.03;;;-143.77;82.04
13836;BME280;6988;52.614;13.500;2023-08-06T20:24:12;54276.41;;;-143.77;82.62
13836;BME280;6988;52.614;13.500;2023-08-06T20:29:05;54272.31;;;-143.77;82.97
13836;BME280;6988;52.614;13.500;2023-08-06T20:33:57;54274.38;;;-143.77;83.04
13836;BME280;6988;52.614;13.500;2023-08-06T20:38:49;54274.38;;;-143.77;82.97
13836;BME280;6988;52.614;13.500;2023-08-06T20:43:41;54268.22;;;-143.77;82.75
13836;BME280;6988;52.614;13.500;2023-08-06T20:48:34;54227.16;;;-143.77;82.96
13836;BME280;6988;52.614;13.500;2023-08-06T20:53:26;54231.28;;;-143.77;83.10
13836;BME280;6988;52.614;13.500;2023-08-06T20:58:17;54272.31;;;-143.77;83.43
13836;BME280;6988;52.614;13.500;2023-08-06T21:03:09;54270.25;;;-143.77;83.58
13836;BME280;6988;52.614;13.500;2023-08-06T21:08:03;54268.22;;;-143.77;83.61
13836;BME280;6988;52.614;13.500;2023-08-06T21:12:54;54276.41;;;-143.77;82.80
13836;BME280;6988;52.614;13.500;2023-08-06T21:17:46;54266.16;;;-143.77;82.84
13836;BME280;6988;52.614;13.500;2023-08-06T21:22:38;54284.63;;;-143.77;82.13
13836;BME280;6988;52.614;13.500;2023-08-06T21:27:31;54286.69;;;-143.77;81.42
13836;BME280;6988;52.614;13.500;2023-08-06T21:32:23;54284.63;;;-143.77;81.40
13836;BME280;6988;52.614;13.500;2023-08-06T21:37:16;54278.47;;;-143.77;80.98
13836;BME280;6988;52.614;13.500;2023-08-06T21:42:08;54286.69;;;-143.77;80.66
13836;BME280;6988;52.614;13.500;2023-08-06T22:04:12;54303.09;;;-143.77;79.34
13836;BME280;6988;52.614;13.500;2023-08-06T22:09:04;54325.66;;;-143.77;80.25
13836;BME280;6988;52.614;13.500;2023-08-06T22:13:55;54315.41;;;-143.77;80.76
13836;BME280;6988;52.614;13.500;2023-08-06T22:18:48;54305.13;;;-143.77;81.08
13836;BME280;6988;52.614;13.500;2023-08-06T22:23:43;54311.28;;;-143.77;80.76
13836;BME280;6988;52.614;13.500;2023-08-06T22:28:35;54294.88;;;-143.77;80.74
13836;BME280;6988;52.614;13.500;2023-08-06T22:33:27;54319.50;;;-143.77;80.40
13836;BME280;6988;52.614;13.500;2023-08-06T22:38:20;54311.28;;;-143.77;80.51
13836;BME280;6988;52.614;13.500;2023-08-06T22:43:13;54329.75;;;-143.77;80.54
13836;BME280;6988;52.614;13.500;2023-08-06T22:48:05;54284.63;;;-143.77;80.37
13836;BME280;6988;52.614;13.500;2023-08-06T22:52:57;54319.50;;;-143.77;80.13
13836;BME280;6988;52.614;13.500;2023-08-06T22:57:48;54350.28;;;-143.77;80.52
13836;BME280;6988;52.614;13.500;2023-08-06T23:02:42;54321.56;;;-143.77;80.96
13836;BME280;6988;52.614;13.500;2023-08-06T23:07:33;54315.41;;;-143.77;80.96
13836;BME280;6988;52.614;13.500;2023-08-06T23:12:25;54319.50;;;-143.77;81.50
13836;BME280;6988;52.614;13.500;2023-08-06T23:17:17;54321.56;;;-143.77;81.35
13836;BME280;6988;52.614;13.500;2023-08-06T23:22:10;54327.72;;;-143.77;80.65
13836;BME280;6988;52.614;13.500;2023-08-06T23:27:02;54344.13;;;-143.77;80.71
13836;BME280;6988;52.614;13.500;2023-08-06T23:31:54;54323.59;;;-143.77;80.63
13836;BME280;6988;52.614;13.500;2023-08-06T23:36:46;54342.06;;;-143.77;80.72
13836;BME280;6988;52.614;13.500;2023-08-06T23:41:40;54311.28;;;-143.77;79.88
13836;BME280;6988;52.614;13.500;2023-08-06T23:46:35;54350.28;;;-143.77;79.86
13836;BME280;6988;52.614;13.500;2023-08-06T23:51:28;54331.81;;;-143.77;79.84
13836;BME280;6988;52.614;13.500;2023-08-06T23:56:20;54315.41;;;-143.77;79.82
